Memphis, MO

6:03 AM CST on March 04, 2015 (GMT -0600)
IADOT Cantril | Change Station
CLOSE
Current Station
Personal Weather Station
Location: Cantril, IA
Elevation: 692 ft
Nearby Weather Stations

Elev 692 ft 40.66 °N, 92.06 °W | Updated 42 minutes ago

Partly Cloudy
Partly Cloudy
14 °F
Feels Like 4 °F
N
7
Wind Variable Wind from NNW
Gusts 13.0 mph

Today
High -- | Low -- °F
--% Chance of Precip.
Yesterday
High -- | Low -- °F
Precip. -- in
6:38 AM 6:03 PM
Waxing Gibbous, 99% visible
Pressure 30.16 in
Visibility 10.0 miles
Clouds Mostly Cloudy 8500 ft
Windchill 4 °F
Dew Point 4 °F
Humidity 64%
Rainfall -999.00 in
Snow Depth Not available.
UV 0 out of 12
Pollen .50 out of 12
Air Quality Not available.
Flu Activity Not available.
METAR KEOK 041155Z AUTO 33008G13KT 300V360 10SM BKN085 M10/M15 A3016 RMK AO2

More Conditions Fewer Conditions

Pressure 30.16 in
Visibility 10.0 miles
Clouds Mostly Cloudy 8500 ft
Windchill 4 °F
Dew Point 4 °F
Humidity 64%
Rainfall -999.00 in
Snow Depth Not available.
UV 0 out of 12
Pollen .50 out of 12
Air Quality Not available.
Flu Activity Not available.
METAR KEOK 041155Z AUTO 33008G13KT 300V360 10SM BKN085 M10/M15 A3016 RMK AO2

More Conditions Fewer Conditions

10-Day Weather Forecast

Almanac

Astronomy

Mar. 04, 2015 Rise Set
Actual Time
Civil Twilight
Nautical Twilight
Astronomical Twilight
Moon
Length of Visible Light
Length of Day
Tomorrow will be .
, % of the Moon is Illuminated

Today's Extremes

State Highs State Lows

Community

WunderPhotos

Upload Photos

1,802,436 photos uploaded!

WunderBlogs® & News

Nearby

Air Quality

  Air Quality AQ Index Pollutant
Not available.

Snow Depth

Station Depth Elevation

Earthquake Activity

City Distance Mag. Time & Date
Minimum magnitude displayed is 2.5.

Coastal Water Temperatures

Place Temperature

Nearby Weather Stations